createdAt,value
2019-02-15T00:00:47.050Z,73.53
2019-02-15T00:01:47.021Z,73.63
2019-02-15T00:02:47.020Z,73.74
2019-02-15T00:03:47.025Z,73.84
2019-02-15T00:04:46.984Z,73.84
2019-02-15T00:05:46.998Z,73.74
2019-02-15T00:06:46.964Z,73.84
2019-02-15T00:07:46.959Z,73.74
2019-02-15T00:08:46.958Z,73.01
2019-02-15T00:09:46.974Z,73.63
2019-02-15T00:10:46.944Z,73.63
2019-02-15T00:11:46.921Z,73.22
2019-02-15T00:12:46.904Z,73.74
2019-02-15T00:13:46.897Z,73.01
2019-02-15T00:14:46.891Z,73.32
2019-02-15T00:15:46.895Z,73.63
2019-02-15T00:16:46.870Z,73.11
2019-02-15T00:17:46.878Z,73.53
2019-02-15T00:18:46.838Z,73.01
2019-02-15T00:19:46.829Z,73.43
2019-02-15T00:20:46.848Z,73.11
2019-02-15T00:21:46.917Z,73.63
2019-02-15T00:22:46.820Z,73.84
2019-02-15T00:23:46.802Z,73.63
2019-02-15T00:24:46.778Z,73.77
2019-02-15T00:25:46.775Z,73.36
2019-02-15T00:26:46.778Z,73.67
2019-02-15T00:27:46.774Z,73.67
2019-02-15T00:28:46.747Z,73.77
2019-02-15T00:29:46.733Z,73.57
2019-02-15T00:30:46.723Z,73.57
2019-02-15T00:31:46.748Z,73.57
2019-02-15T00:32:46.718Z,73.77
2019-02-15T00:33:46.701Z,73.77
2019-02-15T00:34:46.685Z,73.91
2019-02-15T00:35:46.673Z,74.22
2019-02-15T00:36:46.655Z,73.98
2019-02-15T00:37:46.674Z,74.11
2019-02-15T00:38:46.636Z,74.22
2019-02-15T00:39:46.628Z,74.32
2019-02-15T00:40:46.626Z,74.22
2019-02-15T00:41:46.613Z,73.49
2019-02-15T00:42:46.599Z,74.11
2019-02-15T00:43:46.621Z,73.80
2019-02-15T00:44:46.671Z,73.91
2019-02-15T00:45:46.624Z,74.43
2019-02-15T00:46:46.566Z,74.22
2019-02-15T00:47:47.440Z,74.11
2019-02-15T00:48:46.605Z,74.95
2019-02-15T00:49:46.608Z,74.43
2019-02-15T00:50:46.563Z,75.05
2019-02-15T00:51:46.780Z,74.88
2019-02-15T00:52:46.494Z,75.50
2019-02-15T00:53:46.557Z,75.81
2019-02-15T00:54:46.570Z,75.81
2019-02-15T00:55:46.468Z,75.71
2019-02-15T00:56:46.454Z,75.60
2019-02-15T00:57:46.520Z,75.71
2019-02-15T00:58:46.428Z,75.92
2019-02-15T00:59:46.453Z,75.71
2019-02-15T01:00:46.436Z,75.81
2019-02-15T01:01:46.415Z,75.85
2019-02-15T01:02:46.396Z,75.71
2019-02-15T01:03:46.381Z,75.54
2019-02-15T01:04:46.372Z,75.74
2019-02-15T01:05:47.362Z,75.81
2019-02-15T01:06:46.365Z,75.71
2019-02-15T01:07:46.344Z,75.60
2019-02-15T01:08:46.325Z,75.81
2019-02-15T01:09:46.315Z,75.64
2019-02-15T01:10:46.312Z,75.54
2019-02-15T01:11:46.319Z,75.43
2019-02-15T01:12:46.295Z,75.43
2019-02-15T01:13:46.285Z,75.54
2019-02-15T01:14:46.270Z,75.64
2019-02-15T01:15:46.249Z,75.54
2019-02-15T01:16:46.241Z,76.06
2019-02-15T01:17:46.273Z,75.85
2019-02-15T01:18:46.227Z,76.26
2019-02-15T01:19:46.226Z,76.06
2019-02-15T01:20:46.212Z,76.06
2019-02-15T01:21:46.183Z,76.06
2019-02-15T01:22:46.179Z,75.95
2019-02-15T01:23:46.198Z,75.95
2019-02-15T01:24:46.155Z,76.09
2019-02-15T01:25:46.160Z,76.16
2019-02-15T01:26:46.144Z,75.95
2019-02-15T01:27:46.123Z,76.09
2019-02-15T01:28:46.119Z,75.98
2019-02-15T01:29:46.126Z,76.06
2019-02-15T01:30:46.130Z,75.95
2019-02-15T01:31:46.085Z,76.19
2019-02-15T01:32:46.071Z,75.98
2019-02-15T01:33:46.061Z,75.95
2019-02-15T01:34:46.071Z,76.37
2019-02-15T01:35:46.055Z,76.06
2019-02-15T01:36:46.045Z,75.95
2019-02-15T01:37:46.050Z,75.74
2019-02-15T01:38:46.005Z,76.09
2019-02-15T01:39:45.996Z,76.06
2019-02-15T01:40:45.996Z,76.06
2019-02-15T01:41:45.984Z,76.16
2019-02-15T01:42:46.012Z,76.19
2019-02-15T01:43:45.976Z,76.19
2019-02-15T01:44:45.946Z,75.85
2019-02-15T01:45:45.936Z,76.06
2019-02-15T01:46:45.928Z,76.09
2019-02-15T01:47:45.927Z,76.19
2019-02-15T01:48:45.929Z,76.06
2019-02-15T01:49:45.900Z,76.06
2019-02-15T01:50:45.886Z,76.06
2019-02-15T01:51:45.952Z,76.16
2019-02-15T01:52:45.867Z,76.19
2019-02-15T01:53:45.868Z,75.95
2019-02-15T01:54:45.852Z,76.16
2019-02-15T01:55:45.837Z,76.26
2019-02-15T01:56:45.820Z,76.06
2019-02-15T01:57:45.805Z,76.06
2019-02-15T01:58:45.853Z,76.19
2019-02-15T01:59:45.795Z,75.88
2019-02-15T02:00:45.790Z,76.40
2019-02-15T02:01:45.768Z,76.40
2019-02-15T02:02:45.760Z,76.09
2019-02-15T02:03:45.748Z,76.09
2019-02-15T02:04:45.750Z,75.98
2019-02-15T02:05:45.723Z,76.09
2019-02-15T02:06:45.717Z,76.19
2019-02-15T02:07:45.702Z,76.19
2019-02-15T02:08:45.697Z,76.29
2019-02-15T02:09:45.704Z,76.19
2019-02-15T02:10:45.683Z,75.98
2019-02-15T02:11:45.671Z,76.19
2019-02-15T02:12:45.657Z,75.88
2019-02-15T02:13:49.738Z,76.09
2019-02-15T02:14:45.672Z,76.09
2019-02-15T02:15:45.622Z,76.09
2019-02-15T02:16:45.625Z,76.09
2019-02-15T02:17:45.613Z,76.09
2019-02-15T02:18:45.604Z,76.29
2019-02-15T02:19:45.581Z,76.33
2019-02-15T02:20:45.597Z,76.09
2019-02-15T02:21:45.563Z,76.19
2019-02-15T02:22:45.556Z,76.29
2019-02-15T02:23:45.550Z,76.19
2019-02-15T02:24:45.534Z,76.29
2019-02-15T02:25:45.903Z,76.29
2019-02-15T02:26:45.514Z,76.29
2019-02-15T02:27:45.498Z,76.12
2019-02-15T02:28:45.484Z,76.09
2019-02-15T02:29:45.474Z,76.19
2019-02-15T02:30:45.488Z,76.19
2019-02-15T02:31:45.449Z,76.19
2019-02-15T02:32:45.451Z,76.19
2019-02-15T02:33:45.450Z,76.29
2019-02-15T02:34:45.428Z,75.98
2019-02-15T02:35:45.464Z,76.02
2019-02-15T02:36:45.401Z,76.19
2019-02-15T02:37:45.392Z,76.19
2019-02-15T02:38:45.386Z,76.23
2019-02-15T02:39:45.371Z,76.19
2019-02-15T02:40:45.366Z,75.92
2019-02-15T02:41:45.376Z,76.09
2019-02-15T02:42:45.376Z,76.51
2019-02-15T02:43:45.325Z,76.12
2019-02-15T02:44:45.323Z,76.54
2019-02-15T02:45:45.314Z,76.23
2019-02-15T02:46:45.313Z,76.33
2019-02-15T02:47:45.318Z,76.12
2019-02-15T02:48:45.278Z,76.54
2019-02-15T02:49:45.264Z,76.33
2019-02-15T02:50:45.250Z,76.64
2019-02-15T02:51:45.245Z,76.54
2019-02-15T02:52:45.250Z,76.54
2019-02-15T02:53:45.251Z,76.75
2019-02-15T02:54:45.221Z,76.75
2019-02-15T02:55:45.211Z,76.95
2019-02-15T02:56:45.193Z,76.75
2019-02-15T02:57:45.415Z,76.75
2019-02-15T02:58:45.185Z,77.06
2019-02-15T02:59:45.213Z,77.51
2019-02-15T03:00:45.151Z,77.37
2019-02-15T03:01:45.138Z,77.37
2019-02-15T03:02:45.176Z,77.37
2019-02-15T03:03:45.146Z,76.57
2019-02-15T03:04:45.119Z,77.20
2019-02-15T03:05:45.106Z,76.99
2019-02-15T03:06:45.094Z,76.78
2019-02-15T03:07:45.084Z,76.95
2019-02-15T03:08:45.064Z,77.30
2019-02-15T03:09:45.071Z,77.06
2019-02-15T03:10:45.057Z,76.99
2019-02-15T03:11:45.033Z,76.68
2019-02-15T03:12:45.029Z,77.20
2019-02-15T03:13:45.133Z,77.30
2019-02-15T03:14:45.009Z,77.72
2019-02-15T03:15:45.001Z,77.61
2019-02-15T03:16:44.991Z,77.61
2019-02-15T03:17:44.977Z,77.51
2019-02-15T03:18:44.972Z,77.40
2019-02-15T03:19:45.005Z,77.72
2019-02-15T03:20:44.949Z,77.72
2019-02-15T03:21:44.940Z,77.30
2019-02-15T03:22:44.921Z,76.89
2019-02-15T03:23:44.908Z,76.99
2019-02-15T03:24:44.907Z,77.09
2019-02-15T03:25:44.929Z,77.72
2019-02-15T03:26:44.894Z,77.61
2019-02-15T03:27:44.875Z,77.40
2019-02-15T03:28:44.862Z,77.75
2019-02-15T03:29:44.848Z,77.75
2019-02-15T03:30:44.844Z,77.86
2019-02-15T03:31:44.854Z,78.17
2019-02-15T03:32:44.843Z,78.07
2019-02-15T03:33:44.902Z,78.69
2019-02-15T03:34:44.794Z,78.73
2019-02-15T03:35:44.787Z,78.42
2019-02-15T03:36:45.145Z,79.35
2019-02-15T03:37:44.777Z,79.35
2019-02-15T03:38:44.769Z,79.14
2019-02-15T03:39:44.770Z,79.14
2019-02-15T03:40:44.733Z,79.04
2019-02-15T03:41:44.744Z,79.25
2019-02-15T03:42:44.774Z,79.35
2019-02-15T03:43:44.708Z,79.35
2019-02-15T03:44:44.700Z,79.35
2019-02-15T03:45:44.696Z,79.25
2019-02-15T03:46:44.691Z,79.35
2019-02-15T03:47:44.673Z,79.14
2019-02-15T03:48:44.671Z,79.39
2019-02-15T03:49:44.676Z,79.35
2019-02-15T03:50:44.645Z,79.35
2019-02-15T03:51:44.627Z,79.14
2019-02-15T03:52:44.633Z,79.25
2019-02-15T03:53:44.597Z,79.25
2019-02-15T03:54:44.946Z,78.83
2019-02-15T03:55:44.593Z,78.52
2019-02-15T03:56:44.579Z,78.52
2019-02-15T03:57:44.569Z,78.83
2019-02-15T03:58:44.661Z,78.83
2019-02-15T03:59:44.541Z,78.42
2019-02-15T04:00:44.558Z,78.73
2019-02-15T04:01:44.569Z,78.63
2019-02-15T04:02:44.515Z,78.52
2019-02-15T04:03:44.499Z,78.20
2019-02-15T04:04:44.482Z,78.10
2019-02-15T04:05:44.475Z,78.00
2019-02-15T04:06:44.486Z,78.20
2019-02-15T04:07:44.455Z,78.10
2019-02-15T04:08:44.462Z,78.10
2019-02-15T04:09:44.446Z,78.20
2019-02-15T04:10:45.406Z,78.20
2019-02-15T04:11:44.435Z,78.52
2019-02-15T04:12:44.400Z,78.10
2019-02-15T04:13:44.420Z,78.10
2019-02-15T04:14:44.380Z,78.00
2019-02-15T04:15:44.375Z,77.79
2019-02-15T04:16:44.364Z,78.20
2019-02-15T04:17:44.372Z,78.10
2019-02-15T04:18:44.336Z,78.00
2019-02-15T04:19:44.339Z,77.79
2019-02-15T04:20:44.322Z,77.48
2019-02-15T04:21:44.323Z,77.69
2019-02-15T04:22:44.334Z,77.89
2019-02-15T04:23:44.292Z,77.69
2019-02-15T04:24:44.277Z,77.58
2019-02-15T04:25:44.276Z,77.48
2019-02-15T04:26:44.279Z,77.69
2019-02-15T04:27:44.255Z,77.89
2019-02-15T04:28:44.261Z,77.58
2019-02-15T04:29:44.248Z,77.48
2019-02-15T04:30:44.236Z,77.58
2019-02-15T04:31:44.213Z,78.52
2019-02-15T04:32:44.194Z,77.69
2019-02-15T04:33:44.189Z,77.69
2019-02-15T04:34:44.217Z,77.69
2019-02-15T04:35:44.164Z,77.69
2019-02-15T04:36:44.158Z,77.72
2019-02-15T04:37:44.146Z,78.20
2019-02-15T04:38:44.133Z,78.03
2019-02-15T04:39:44.174Z,78.03
2019-02-15T04:40:44.117Z,78.56
2019-02-15T04:41:44.107Z,78.45
2019-02-15T04:42:44.100Z,78.66
2019-02-15T04:43:44.084Z,78.66
2019-02-15T04:44:44.073Z,78.87
2019-02-15T04:45:44.079Z,78.87
2019-02-15T04:46:44.049Z,78.66
2019-02-15T04:47:44.034Z,78.34
2019-02-15T04:48:44.040Z,78.56
2019-02-15T04:49:44.038Z,78.24
2019-02-15T04:50:44.064Z,78.77
2019-02-15T04:51:43.998Z,78.14
2019-02-15T04:52:43.993Z,78.56
2019-02-15T04:53:43.980Z,78.66
2019-02-15T04:54:43.984Z,78.34
2019-02-15T04:55:44.000Z,78.20
2019-02-15T04:56:43.945Z,78.24
2019-02-15T04:57:43.934Z,78.45
2019-02-15T04:58:43.921Z,78.45
2019-02-15T04:59:43.910Z,78.45
2019-02-15T05:00:43.920Z,78.66
2019-02-15T05:01:43.917Z,78.66
2019-02-15T05:02:43.913Z,78.56
2019-02-15T05:03:43.881Z,78.56
2019-02-15T05:04:43.894Z,78.56
2019-02-15T05:05:43.867Z,78.56
2019-02-15T05:06:43.846Z,78.66
2019-02-15T05:07:43.870Z,78.63
2019-02-15T05:08:43.821Z,78.66
2019-02-15T05:09:43.810Z,78.56
2019-02-15T05:10:43.804Z,78.66
2019-02-15T05:11:43.792Z,78.45
2019-02-15T05:12:43.808Z,78.66
2019-02-15T05:13:43.776Z,78.77
2019-02-15T05:14:52.801Z,78.66
2019-02-15T05:15:44.757Z,78.20
2019-02-15T05:16:43.737Z,78.03
2019-02-15T05:17:43.740Z,78.24
2019-02-15T05:18:43.864Z,77.83
2019-02-15T05:19:43.760Z,78.24
2019-02-15T05:20:43.711Z,78.34
2019-02-15T05:21:43.740Z,78.31
2019-02-15T05:22:43.692Z,78.14
2019-02-15T05:23:43.662Z,78.24
2019-02-15T05:24:43.709Z,77.83
2019-02-15T05:25:43.649Z,77.93
2019-02-15T05:26:43.928Z,78.03
2019-02-15T05:27:43.627Z,77.93
2019-02-15T05:28:43.615Z,77.93
2019-02-15T05:29:43.975Z,77.89
2019-02-15T05:30:43.595Z,77.79
2019-02-15T05:31:43.577Z,77.69
2019-02-15T05:32:43.608Z,77.79
2019-02-15T05:33:43.571Z,77.62
2019-02-15T05:34:43.556Z,77.51
2019-02-15T05:35:43.575Z,77.62
2019-02-15T05:36:43.534Z,78.14
2019-02-15T05:37:43.527Z,78.03
2019-02-15T05:38:43.536Z,78.24
2019-02-15T05:39:43.530Z,78.77
2019-02-15T05:40:43.512Z,78.45
2019-02-15T05:41:43.518Z,79.08
2019-02-15T05:42:43.534Z,79.39
2019-02-15T05:43:43.464Z,79.39
2019-02-15T05:44:43.477Z,79.60
2019-02-15T05:45:43.441Z,79.28
2019-02-15T05:46:43.433Z,79.53
2019-02-15T05:47:44.469Z,79.63
2019-02-15T05:48:43.408Z,79.63
2019-02-15T05:49:43.399Z,80.16
2019-02-15T05:50:43.421Z,79.94
2019-02-15T05:51:43.481Z,79.94
2019-02-15T05:52:43.375Z,79.84
2019-02-15T05:53:43.434Z,79.63
2019-02-15T05:54:43.351Z,79.39
2019-02-15T05:55:43.336Z,79.08
2019-02-15T05:56:43.329Z,78.97
2019-02-15T05:57:43.324Z,78.56
2019-02-15T05:58:43.331Z,78.66
2019-02-15T05:59:43.301Z,79.32
2019-02-15T06:00:43.283Z,79.11
2019-02-15T06:01:43.285Z,80.05
2019-02-15T06:02:43.258Z,80.16
2019-02-15T06:03:43.267Z,80.05
2019-02-15T06:04:43.270Z,80.71
2019-02-15T06:05:43.240Z,80.71
2019-02-15T06:06:43.225Z,80.71
2019-02-15T06:07:43.225Z,80.82
2019-02-15T06:08:43.229Z,80.51
2019-02-15T06:09:43.188Z,80.51
2019-02-15T06:10:43.185Z,80.92
2019-02-15T06:11:43.176Z,80.92
2019-02-15T06:12:43.157Z,80.92
2019-02-15T06:13:43.163Z,80.82
2019-02-15T06:14:43.141Z,80.82
2019-02-15T06:15:43.125Z,80.82
2019-02-15T06:16:43.120Z,80.82
2019-02-15T06:17:43.114Z,80.61
2019-02-15T06:18:43.122Z,80.36
2019-02-15T06:19:43.094Z,79.84
2019-02-15T06:20:43.079Z,80.40
2019-02-15T06:21:43.062Z,79.94
2019-02-15T06:22:43.050Z,79.94
2019-02-15T06:23:43.060Z,80.16
2019-02-15T06:24:43.084Z,80.05
2019-02-15T06:25:43.046Z,79.88
2019-02-15T06:26:43.009Z,80.09
2019-02-15T06:27:43.002Z,80.16
2019-02-15T06:28:43.023Z,80.51
2019-02-15T06:29:43.004Z,79.94
2019-02-15T06:30:42.983Z,79.63
2019-02-15T06:31:42.976Z,80.16
2019-02-15T06:32:42.955Z,80.05
2019-02-15T06:33:43.085Z,80.05
2019-02-15T06:34:42.930Z,80.05
2019-02-15T06:35:42.924Z,80.05
2019-02-15T06:36:42.928Z,79.94
2019-02-15T06:37:42.912Z,80.05
2019-02-15T06:38:42.892Z,79.63
2019-02-15T06:39:42.903Z,79.01
2019-02-15T06:40:42.864Z,79.11
2019-02-15T06:41:42.870Z,79.53
2019-02-15T06:42:42.884Z,79.32
2019-02-15T06:43:42.860Z,79.22
2019-02-15T06:44:42.885Z,79.43
2019-02-15T06:45:42.814Z,79.11
2019-02-15T06:46:42.803Z,79.22
2019-02-15T06:47:42.803Z,79.53
2019-02-15T06:48:42.819Z,79.53
2019-02-15T06:49:42.785Z,79.01
2019-02-15T06:50:42.775Z,79.32
2019-02-15T06:51:42.763Z,79.22
2019-02-15T06:52:42.740Z,79.22
2019-02-15T06:53:42.757Z,78.56
2019-02-15T06:54:42.722Z,78.34
2019-02-15T06:55:42.730Z,77.30
2019-02-15T06:56:42.704Z,74.05
2019-02-15T06:57:42.694Z,71.04
2019-02-15T06:58:45.682Z,68.38
2019-02-15T06:59:42.691Z,65.81
2019-02-15T07:00:42.665Z,64.30
2019-02-15T07:01:42.665Z,62.48
2019-02-15T07:02:42.668Z,60.80
2019-02-15T07:03:42.672Z,59.84
2019-02-15T07:04:42.619Z,59.41
2019-02-15T07:05:42.630Z,58.58
2019-02-15T07:06:42.594Z,58.69
2019-02-15T07:07:43.422Z,58.35
2019-02-15T07:08:42.579Z,57.32
2019-02-15T07:09:42.637Z,57.42
2019-02-15T07:10:42.566Z,56.88
2019-02-15T07:11:42.572Z,56.10
2019-02-15T07:12:42.547Z,54.74
2019-02-15T07:13:42.557Z,54.51
2019-02-15T07:14:42.516Z,53.79
2019-02-15T07:15:42.523Z,54.10
2019-02-15T07:16:42.493Z,53.45
2019-02-15T07:17:42.476Z,52.69
2019-02-15T07:18:42.496Z,52.28
2019-02-15T07:19:43.819Z,53.12
2019-02-15T07:20:42.454Z,52.09
2019-02-15T07:21:42.444Z,52.51
2019-02-15T07:22:42.442Z,51.87
2019-02-15T07:23:42.445Z,51.56
2019-02-15T07:24:42.427Z,50.84
2019-02-15T07:25:42.399Z,51.45
2019-02-15T07:26:42.384Z,52.17
2019-02-15T07:27:42.373Z,51.97
2019-02-15T07:28:42.407Z,52.20
2019-02-15T07:29:42.398Z,52.61
2019-02-15T07:30:42.349Z,52.40
2019-02-15T07:31:42.371Z,52.43
2019-02-15T07:32:42.323Z,52.73
2019-02-15T07:33:42.314Z,53.38
2019-02-15T07:34:42.330Z,54.66
2019-02-15T07:35:42.346Z,54.90
2019-02-15T07:36:42.311Z,56.16
2019-02-15T07:37:42.275Z,57.14
2019-02-15T07:38:42.262Z,58.43
2019-02-15T07:39:42.242Z,58.97
2019-02-15T07:40:42.243Z,60.55
2019-02-15T07:41:42.269Z,60.89
2019-02-15T07:42:42.237Z,61.71
2019-02-15T07:43:42.208Z,62.37
2019-02-15T07:44:42.191Z,63.64
2019-02-15T07:45:43.040Z,64.18
2019-02-15T07:46:42.179Z,64.59
2019-02-15T07:47:42.198Z,65.25
2019-02-15T07:48:42.191Z,65.22
2019-02-15T07:49:42.137Z,65.25
2019-02-15T07:50:42.127Z,64.86
2019-02-15T07:51:42.145Z,66.21
2019-02-15T07:52:42.119Z,66.72
2019-02-15T07:53:42.123Z,66.72
2019-02-15T07:54:42.091Z,66.93
2019-02-15T07:55:42.084Z,67.45
2019-02-15T07:56:42.068Z,67.24
2019-02-15T07:57:42.083Z,66.96
2019-02-15T07:58:42.046Z,67.03
2019-02-15T07:59:42.052Z,67.66
2019-02-15T08:00:42.033Z,67.58
2019-02-15T08:01:42.019Z,66.96
2019-02-15T08:02:42.024Z,67.07
2019-02-15T08:03:41.991Z,67.17
2019-02-15T08:04:41.989Z,67.14
2019-02-15T08:05:42.003Z,67.24
2019-02-15T08:06:42.070Z,67.14
2019-02-15T08:07:41.983Z,66.72
2019-02-15T08:08:41.950Z,66.28
2019-02-15T08:09:41.931Z,66.38
2019-02-15T08:10:41.962Z,65.56
2019-02-15T08:11:41.906Z,64.80
2019-02-15T08:12:41.907Z,64.64
2019-02-15T08:13:41.892Z,63.16
2019-02-15T08:14:41.903Z,61.73
2019-02-15T08:15:41.881Z,58.29
2019-02-15T08:16:41.875Z,54.97
2019-02-15T08:17:42.429Z,51.34
2019-02-15T08:18:41.840Z,47.85
2019-02-15T08:19:41.831Z,45.39
2019-02-15T08:20:41.852Z,43.26
2019-02-15T08:21:41.828Z,41.27
2019-02-15T08:22:41.816Z,39.40
2019-02-15T08:23:41.821Z,39.86
2019-02-15T08:24:41.785Z,38.18
2019-02-15T08:25:41.765Z,37.55
2019-02-15T08:26:41.765Z,37.30
2019-02-15T08:27:41.769Z,35.35
2019-02-15T08:28:41.729Z,35.23
2019-02-15T08:29:41.717Z,34.39
2019-02-15T08:30:41.707Z,33.56
2019-02-15T08:31:41.696Z,32.95
2019-02-15T08:32:41.965Z,31.73
2019-02-15T08:33:42.394Z,32.23
2019-02-15T08:34:41.668Z,32.03
2019-02-15T08:35:41.657Z,32.03
2019-02-15T08:36:41.649Z,32.31
2019-02-15T08:37:41.634Z,31.71
2019-02-15T08:38:41.671Z,32.21
2019-02-15T08:39:41.625Z,32.51
2019-02-15T08:40:41.608Z,32.51
2019-02-15T08:41:41.589Z,31.30
2019-02-15T08:42:41.571Z,32.11
2019-02-15T08:43:41.564Z,31.59
2019-02-15T08:44:42.434Z,31.69
2019-02-15T08:45:41.552Z,31.30
2019-02-15T08:46:41.549Z,31.51
2019-02-15T08:47:41.530Z,31.49
2019-02-15T08:48:46.225Z,31.48
2019-02-15T08:49:42.523Z,31.36
2019-02-15T08:50:41.510Z,30.15
2019-02-15T08:51:41.607Z,30.76
2019-02-15T08:52:41.467Z,30.04
2019-02-15T08:53:41.458Z,30.04
2019-02-15T08:54:41.470Z,30.14
2019-02-15T08:55:41.451Z,29.82
2019-02-15T08:56:41.434Z,29.93
2019-02-15T08:57:41.422Z,30.32
2019-02-15T08:58:41.439Z,30.12
2019-02-15T08:59:41.398Z,30.22
2019-02-15T09:00:41.413Z,30.19
2019-02-15T09:01:41.373Z,29.49
2019-02-15T09:02:41.363Z,28.99
2019-02-15T09:03:41.357Z,29.09
2019-02-15T09:04:41.346Z,29.39
2019-02-15T09:05:41.339Z,29.38
2019-02-15T09:06:41.336Z,29.39
2019-02-15T09:07:41.330Z,29.69
2019-02-15T09:08:41.308Z,29.29
2019-02-15T09:09:41.307Z,29.18
2019-02-15T09:10:41.309Z,28.98
2019-02-15T09:11:41.273Z,29.48
2019-02-15T09:12:41.255Z,29.48
2019-02-15T09:13:41.249Z,29.06
2019-02-15T09:14:41.233Z,29.16
2019-02-15T09:15:41.220Z,28.45
2019-02-15T09:16:41.247Z,28.33
2019-02-15T09:17:41.209Z,28.75
2019-02-15T09:18:41.202Z,28.53
2019-02-15T09:19:41.185Z,28.14
2019-02-15T09:20:41.189Z,28.84
2019-02-15T09:21:41.178Z,28.14
2019-02-15T09:22:41.153Z,28.32
2019-02-15T09:23:41.159Z,27.92
2019-02-15T09:24:41.126Z,27.41
2019-02-15T09:25:41.119Z,27.71
2019-02-15T09:26:41.113Z,27.01
2019-02-15T09:27:41.101Z,26.29
2019-02-15T09:28:41.113Z,26.79
2019-02-15T09:29:41.081Z,26.61
2019-02-15T09:30:41.067Z,27.11
2019-02-15T09:31:41.065Z,27.09
2019-02-15T09:32:41.047Z,26.70
2019-02-15T09:33:41.058Z,26.79
2019-02-15T09:34:41.026Z,26.51
2019-02-15T09:35:41.013Z,26.71
2019-02-15T09:36:41.008Z,26.81
2019-02-15T09:37:40.993Z,27.20
2019-02-15T09:38:41.006Z,27.09
2019-02-15T09:39:40.992Z,26.89
2019-02-15T09:40:40.967Z,26.61
2019-02-15T09:41:40.951Z,26.89
2019-02-15T09:42:40.941Z,26.91
2019-02-15T09:43:40.958Z,26.81
2019-02-15T09:44:40.913Z,26.71
2019-02-15T09:45:40.901Z,27.11
2019-02-15T09:46:40.893Z,27.01
2019-02-15T09:47:40.884Z,26.71
2019-02-15T09:48:40.942Z,27.11
2019-02-15T09:49:42.608Z,27.12
2019-02-15T09:50:40.857Z,27.03
2019-02-15T09:51:41.427Z,27.14
2019-02-15T09:52:40.842Z,27.42
2019-02-15T09:53:40.820Z,26.91
2019-02-15T09:54:40.949Z,27.71
2019-02-15T09:55:40.827Z,27.01
2019-02-15T09:56:40.786Z,26.91
2019-02-15T09:57:40.776Z,26.29
2019-02-15T09:58:40.771Z,26.86
2019-02-15T09:59:40.825Z,25.47
2019-02-15T10:00:40.752Z,25.77
2019-02-15T10:01:40.764Z,25.56
2019-02-15T10:02:40.733Z,26.06
2019-02-15T10:03:40.716Z,25.65
2019-02-15T10:04:40.703Z,25.24
2019-02-15T10:05:40.694Z,25.76
2019-02-15T10:06:40.702Z,25.77
2019-02-15T10:07:40.675Z,25.46
2019-02-15T10:08:40.671Z,24.96
2019-02-15T10:09:41.123Z,24.97
2019-02-15T10:10:40.645Z,25.37
2019-02-15T10:11:40.663Z,24.86
2019-02-15T10:12:40.629Z,25.55
2019-02-15T10:13:40.619Z,24.33
2019-02-15T10:14:40.604Z,25.23
2019-02-15T10:15:40.601Z,24.92
2019-02-15T10:16:40.589Z,24.92
2019-02-15T10:17:40.586Z,24.41
2019-02-15T10:18:40.563Z,24.13
2019-02-15T10:19:40.551Z,24.85
2019-02-15T10:20:40.586Z,24.25
2019-02-15T10:21:40.542Z,24.86
2019-02-15T10:22:40.547Z,24.63
2019-02-15T10:23:40.518Z,24.14
2019-02-15T10:24:40.504Z,23.94
2019-02-15T10:25:40.491Z,24.74
2019-02-15T10:26:40.485Z,24.43
2019-02-15T10:27:40.570Z,24.14
2019-02-15T10:28:40.454Z,24.33
2019-02-15T10:29:40.451Z,23.64
2019-02-15T10:30:40.440Z,24.13
2019-02-15T10:31:40.427Z,23.91
2019-02-15T10:32:41.006Z,23.32
2019-02-15T10:33:40.447Z,23.61
2019-02-15T10:34:40.400Z,24.22
2019-02-15T10:35:40.392Z,24.32
2019-02-15T10:36:40.371Z,24.02
2019-02-15T10:37:40.365Z,24.20
2019-02-15T10:38:40.375Z,23.82
2019-02-15T10:39:40.345Z,23.82
2019-02-15T10:40:40.339Z,22.41
2019-02-15T10:41:40.330Z,22.11
2019-02-15T10:42:40.310Z,22.80
2019-02-15T10:43:40.329Z,22.50
2019-02-15T10:44:40.311Z,22.20
2019-02-15T10:45:40.295Z,22.80
2019-02-15T10:46:40.284Z,22.20
2019-02-15T10:47:40.268Z,22.39
2019-02-15T10:48:40.256Z,22.70
2019-02-15T10:49:40.264Z,22.09
2019-02-15T10:50:40.230Z,22.00
2019-02-15T10:51:40.264Z,21.81
2019-02-15T10:52:40.222Z,22.01
2019-02-15T10:53:40.352Z,21.81
2019-02-15T10:54:40.230Z,21.70
2019-02-15T10:55:40.189Z,21.78
2019-02-15T10:56:40.168Z,21.79
2019-02-15T10:57:40.157Z,21.30
2019-02-15T10:58:40.154Z,21.89
2019-02-15T10:59:40.142Z,21.99
2019-02-15T11:00:40.151Z,21.79
2019-02-15T11:01:40.127Z,20.30
2019-02-15T11:02:40.110Z,20.39
2019-02-15T11:03:40.097Z,20.70
2019-02-15T11:04:41.132Z,20.89
2019-02-15T11:05:40.091Z,20.89
2019-02-15T11:06:40.081Z,20.39
2019-02-15T11:07:40.073Z,20.49
2019-02-15T11:08:40.074Z,20.57
2019-02-15T11:09:40.049Z,20.18
2019-02-15T11:10:40.051Z,20.48
2019-02-15T11:11:40.023Z,19.98
2019-02-15T11:12:40.016Z,19.78
2019-02-15T11:13:40.006Z,20.08
2019-02-15T11:14:39.988Z,19.68
2019-02-15T11:15:39.999Z,20.08
2019-02-15T11:16:46.992Z,20.09
2019-02-15T11:17:40.962Z,20.28
2019-02-15T11:18:39.956Z,19.68
2019-02-15T11:19:39.943Z,19.58
2019-02-15T11:20:39.944Z,19.57
2019-02-15T11:21:39.924Z,20.06
2019-02-15T11:22:39.907Z,19.17
2019-02-15T11:23:39.970Z,18.97
2019-02-15T11:24:39.896Z,19.27
2019-02-15T11:25:39.903Z,19.18
2019-02-15T11:26:39.873Z,18.88
2019-02-15T11:27:39.869Z,18.76
2019-02-15T11:28:39.846Z,18.18
2019-02-15T11:29:39.840Z,18.18
2019-02-15T11:30:39.863Z,18.16
2019-02-15T11:31:39.823Z,17.57
2019-02-15T11:32:39.808Z,17.88
2019-02-15T11:33:39.795Z,17.49
2019-02-15T11:34:39.784Z,17.98
2019-02-15T11:35:39.783Z,17.67
2019-02-15T11:36:39.789Z,17.38
2019-02-15T11:37:39.764Z,17.38
2019-02-15T11:38:39.761Z,17.66
2019-02-15T11:39:39.741Z,16.67
2019-02-15T11:40:39.725Z,17.46
2019-02-15T11:41:39.747Z,17.85
2019-02-15T11:42:39.723Z,17.35
2019-02-15T11:43:39.695Z,17.86
2019-02-15T11:44:39.693Z,17.76
2019-02-15T11:45:39.681Z,17.57
2019-02-15T11:46:39.683Z,17.56
2019-02-15T11:47:39.654Z,17.65
2019-02-15T11:48:39.665Z,17.84
2019-02-15T11:49:39.642Z,17.44
2019-02-15T11:50:39.633Z,17.83
2019-02-15T11:51:39.639Z,16.44
2019-02-15T11:52:39.603Z,16.64
2019-02-15T11:53:39.614Z,17.13
2019-02-15T11:54:39.586Z,17.35
2019-02-15T11:55:39.624Z,16.25
2019-02-15T11:56:39.580Z,16.06
2019-02-15T11:57:39.579Z,16.44
2019-02-15T11:58:39.570Z,16.44
2019-02-15T11:59:39.540Z,16.64
2019-02-15T12:00:39.525Z,16.83
2019-02-15T12:01:39.517Z,16.83
2019-02-15T12:02:39.519Z,16.93
2019-02-15T12:03:39.527Z,16.72
2019-02-15T12:04:39.486Z,16.01
2019-02-15T12:05:39.472Z,16.50
2019-02-15T12:06:39.467Z,16.11
2019-02-15T12:07:39.452Z,16.31
2019-02-15T12:08:39.455Z,16.11
2019-02-15T12:09:39.465Z,16.41
2019-02-15T12:10:39.430Z,15.81
2019-02-15T12:11:39.420Z,16.31
2019-02-15T12:12:39.406Z,16.71
2019-02-15T12:13:39.394Z,16.82
2019-02-15T12:14:39.402Z,17.04
2019-02-15T12:15:39.371Z,17.73
2019-02-15T12:16:39.394Z,17.03
2019-02-15T12:17:39.364Z,16.53
2019-02-15T12:18:39.346Z,17.02
2019-02-15T12:19:39.333Z,17.80
2019-02-15T12:20:39.329Z,15.92
2019-02-15T12:21:39.318Z,16.82
2019-02-15T12:22:39.325Z,16.03
2019-02-15T12:23:39.306Z,16.42
2019-02-15T12:24:39.286Z,17.02
2019-02-15T12:25:39.280Z,17.41
2019-02-15T12:26:39.259Z,17.12
2019-02-15T12:27:39.280Z,17.33
2019-02-15T12:28:39.249Z,16.83
2019-02-15T12:29:39.240Z,16.64
2019-02-15T12:30:39.230Z,16.83
2019-02-15T12:31:39.239Z,17.43
2019-02-15T12:32:39.202Z,17.03
2019-02-15T12:33:39.218Z,16.64
2019-02-15T12:34:39.193Z,17.46
2019-02-15T12:35:39.177Z,17.25
2019-02-15T12:36:39.164Z,17.73
2019-02-15T12:37:39.150Z,16.93
2019-02-15T12:38:39.161Z,17.11
2019-02-15T12:39:39.133Z,17.21
2019-02-15T12:40:39.132Z,16.01
2019-02-15T12:41:39.119Z,16.31
2019-02-15T12:42:39.107Z,16.62
2019-02-15T12:43:39.114Z,16.62
2019-02-15T12:44:39.086Z,16.51
2019-02-15T12:45:39.085Z,16.31
2019-02-15T12:46:39.075Z,16.02
2019-02-15T12:47:39.054Z,16.60
2019-02-15T12:48:39.050Z,15.91
2019-02-15T12:49:39.035Z,15.92
2019-02-15T12:50:39.019Z,16.12
2019-02-15T12:51:39.039Z,16.02
2019-02-15T12:52:39.012Z,15.83